createdAt,value
2022-11-17T00:03:29.775Z,82.23
2022-11-17T00:08:34.263Z,83.20
2022-11-17T00:13:54.825Z,83.35
2022-11-17T00:19:15.081Z,84.18
2022-11-17T00:24:19.350Z,83.47
2022-11-17T00:29:22.291Z,82.89
2022-11-17T00:34:25.027Z,83.36
2022-11-17T00:39:29.219Z,84.08
2022-11-17T00:44:32.733Z,83.56
2022-11-17T00:49:36.682Z,83.92
2022-11-17T00:54:40.922Z,84.08
2022-11-17T00:59:43.655Z,83.31
2022-11-17T01:04:46.435Z,83.26
2022-11-17T01:09:50.565Z,83.54
2022-11-17T01:14:53.341Z,83.21
2022-11-17T01:19:56.106Z,82.95
2022-11-17T01:25:00.228Z,82.85
2022-11-17T01:30:03.351Z,83.65
2022-11-17T01:35:06.964Z,84.23
2022-11-17T01:40:14.151Z,83.86
2022-11-17T01:45:22.010Z,83.68
2022-11-17T01:50:31.263Z,83.38
2022-11-17T01:55:39.313Z,83.46
2022-11-17T02:00:42.552Z,83.24
2022-11-17T02:05:52.854Z,83.32
2022-11-17T02:10:57.727Z,82.45
2022-11-17T02:16:00.491Z,81.91
2022-11-17T02:21:23.903Z,81.53
2022-11-17T02:26:55.941Z,81.94
2022-11-17T02:32:06.171Z,81.64
2022-11-17T02:37:13.915Z,81.26
2022-11-17T02:42:46.572Z,81.78
2022-11-17T02:47:55.283Z,81.93
2022-11-17T02:52:58.098Z,81.78
2022-11-17T02:58:00.893Z,81.54
2022-11-17T03:03:18.096Z,82.08
2022-11-17T03:08:33.223Z,82.74
2022-11-17T03:13:47.237Z,81.90
2022-11-17T03:19:01.873Z,82.49
2022-11-17T03:24:07.802Z,83.02
2022-11-17T03:29:15.992Z,82.16
2022-11-17T03:34:24.734Z,82.73
2022-11-17T03:39:32.584Z,82.47
2022-11-17T03:44:40.115Z,84.68
2022-11-17T03:49:50.451Z,88.14
2022-11-17T03:54:53.979Z,89.31
2022-11-17T04:00:04.559Z,90.04
2022-11-17T04:05:18.951Z,89.67
2022-11-17T04:10:25.614Z,90.94
2022-11-17T04:15:46.609Z,91.67
2022-11-17T04:20:53.345Z,91.64
2022-11-17T04:26:15.075Z,92.08
2022-11-17T04:31:19.921Z,93.21
2022-11-17T04:36:25.920Z,92.71
2022-11-17T04:41:47.888Z,92.71
2022-11-17T04:46:50.880Z,93.78
2022-11-17T04:51:55.337Z,93.12
2022-11-17T04:56:58.539Z,96.25
2022-11-17T05:02:05.899Z,95.13
2022-11-17T05:07:10.726Z,94.31
2022-11-17T05:12:30.895Z,94.39
2022-11-17T05:17:33.621Z,94.47
2022-11-17T05:23:06.377Z,94.00
2022-11-17T05:28:09.595Z,95.90
2022-11-17T05:33:12.372Z,96.65
2022-11-17T05:38:16.463Z,96.61
2022-11-17T05:43:19.199Z,98.72
2022-11-17T05:48:22.039Z,97.89
2022-11-17T05:53:26.333Z,95.34
2022-11-17T05:58:33.457Z,95.43
2022-11-17T06:03:43.118Z,95.26
2022-11-17T06:08:47.572Z,95.84
2022-11-17T06:13:50.347Z,96.15
2022-11-17T06:18:57.083Z,95.08
2022-11-17T06:24:02.251Z,95.63
2022-11-17T06:29:06.296Z,95.48
2022-11-17T06:34:09.847Z,95.25
2022-11-17T06:39:13.989Z,95.23
2022-11-17T06:44:16.739Z,94.92
2022-11-17T06:49:19.975Z,94.50
2022-11-17T06:54:24.129Z,94.84
2022-11-17T06:59:26.977Z,94.09
2022-11-17T07:04:29.785Z,93.64
2022-11-17T07:09:33.950Z,93.04
2022-11-17T07:14:36.801Z,93.30
2022-11-17T07:19:39.625Z,93.63
2022-11-17T07:24:43.795Z,93.19
2022-11-17T07:29:46.611Z,92.42
2022-11-17T07:34:49.697Z,92.13
2022-11-17T07:39:53.873Z,92.25
2022-11-17T07:44:56.662Z,94.76
2022-11-17T07:49:59.489Z,95.50
2022-11-17T07:55:03.662Z,94.67
2022-11-17T08:00:07.449Z,95.11
2022-11-17T08:05:17.309Z,93.43
2022-11-17T08:10:21.687Z,92.14
2022-11-17T08:15:24.890Z,90.71
2022-11-17T08:20:29.220Z,89.79
2022-11-17T08:25:33.457Z,90.01
2022-11-17T08:30:36.339Z,89.30
2022-11-17T08:35:39.179Z,89.46
2022-11-17T08:40:43.712Z,89.03
2022-11-17T08:45:46.575Z,89.05
2022-11-17T08:50:49.826Z,89.38
2022-11-17T08:55:54.073Z,89.74
2022-11-17T09:01:00.941Z,92.13
2022-11-17T09:06:07.208Z,93.16
2022-11-17T09:11:16.573Z,94.84
2022-11-17T09:16:19.655Z,100.00
2022-11-17T09:21:22.551Z,100.00
2022-11-17T09:26:26.852Z,96.48
2022-11-17T09:31:30.077Z,95.04
2022-11-17T09:36:33.354Z,93.90
2022-11-17T09:41:42.867Z,94.29
2022-11-17T09:46:57.113Z,94.72
2022-11-17T09:52:06.507Z,94.71
2022-11-17T09:57:21.524Z,94.48
2022-11-17T10:02:24.662Z,94.05
2022-11-17T10:07:28.814Z,93.85
2022-11-17T10:12:43.385Z,93.27
2022-11-17T10:17:46.169Z,93.27
2022-11-17T10:22:50.924Z,93.55
2022-11-17T10:27:55.184Z,93.40
2022-11-17T10:33:00.095Z,92.80
2022-11-17T10:38:06.813Z,94.02
2022-11-17T10:43:24.505Z,95.83
2022-11-17T10:48:32.263Z,94.35
2022-11-17T10:53:45.072Z,93.76
2022-11-17T10:59:03.575Z,94.33
2022-11-17T11:04:08.444Z,94.00
2022-11-17T11:09:15.113Z,93.40
2022-11-17T11:14:32.106Z,93.58
2022-11-17T11:19:35.393Z,93.05
2022-11-17T11:24:46.262Z,93.58
2022-11-17T11:30:00.147Z,93.45
2022-11-17T11:35:37.486Z,92.76
2022-11-17T11:40:44.507Z,92.96
2022-11-17T11:45:54.602Z,93.18
2022-11-17T11:50:59.484Z,92.76
2022-11-17T11:56:09.890Z,92.34
2022-11-17T12:01:17.134Z,92.49
2022-11-17T12:06:43.899Z,92.92
2022-11-17T12:12:03.694Z,92.92
2022-11-17T12:17:23.210Z,92.62
2022-11-17T12:22:57.486Z,93.14
2022-11-17T12:28:19.245Z,93.39
2022-11-17T12:33:24.078Z,93.70
2022-11-17T12:38:40.865Z,93.87
2022-11-17T12:43:43.697Z,92.45
2022-11-17T12:48:57.181Z,92.84
2022-11-17T12:54:14.540Z,92.68
2022-11-17T12:59:47.680Z,92.40
2022-11-17T13:04:58.660Z,92.98
2022-11-17T13:10:02.678Z,92.16
2022-11-17T13:15:06.776Z,92.33
2022-11-17T13:20:24.240Z,92.23
2022-11-17T13:25:27.133Z,93.06
2022-11-17T13:30:31.090Z,92.31
2022-11-17T13:35:36.994Z,92.09
2022-11-17T13:40:41.544Z,91.55
2022-11-17T13:45:45.763Z,91.16
2022-11-17T13:50:49.942Z,91.38
2022-11-17T13:55:54.168Z,91.66
2022-11-17T14:00:59.169Z,92.29
2022-11-17T14:06:05.386Z,91.64
2022-11-17T14:11:16.320Z,90.72
2022-11-17T14:16:28.760Z,91.11
2022-11-17T14:21:33.733Z,90.03
2022-11-17T14:26:44.465Z,90.31
2022-11-17T14:31:47.274Z,90.36
2022-11-17T14:36:54.625Z,90.57
2022-11-17T14:41:57.892Z,90.28
2022-11-17T14:47:00.682Z,90.21
2022-11-17T14:52:05.209Z,90.30
2022-11-17T14:57:08.054Z,90.31
2022-11-17T15:02:11.307Z,90.35
2022-11-17T15:07:15.437Z,90.55
2022-11-17T15:12:18.512Z,90.63
2022-11-17T15:17:21.329Z,90.38
2022-11-17T15:22:25.466Z,90.51
2022-11-17T15:27:28.304Z,90.47
2022-11-17T15:32:31.097Z,90.58
2022-11-17T15:37:35.207Z,91.01
2022-11-17T15:42:37.987Z,91.00
2022-11-17T15:47:40.750Z,91.02
2022-11-17T15:58:07.673Z,91.04
2022-11-17T16:03:10.470Z,91.19
2022-11-17T16:08:14.653Z,91.34
2022-11-17T16:13:17.505Z,91.38
2022-11-17T16:18:20.557Z,90.62
2022-11-17T16:23:24.752Z,90.72
2022-11-17T16:28:27.537Z,91.10
2022-11-17T16:33:30.298Z,90.34
2022-11-17T16:38:34.499Z,90.22
2022-11-17T16:43:44.278Z,90.36
2022-11-17T16:48:48.625Z,90.86
2022-11-17T16:53:58.584Z,90.62
2022-11-17T16:59:01.685Z,90.36
2022-11-17T17:04:06.986Z,90.46
2022-11-17T17:09:13.105Z,90.52
2022-11-17T17:14:16.701Z,90.25
2022-11-17T17:19:19.755Z,90.49
2022-11-17T17:24:24.114Z,90.41
2022-11-17T17:29:26.979Z,90.07
2022-11-17T17:34:29.867Z,90.31
2022-11-17T17:39:34.368Z,90.50
2022-11-17T17:44:37.253Z,90.07
2022-11-17T17:49:40.088Z,90.24
2022-11-17T17:54:44.184Z,90.50
2022-11-17T17:59:47.010Z,90.39
2022-11-17T18:04:49.764Z,90.28
2022-11-17T18:09:53.896Z,90.18
2022-11-17T18:14:56.813Z,90.26
2022-11-17T18:19:59.633Z,90.78
2022-11-17T18:25:07.575Z,89.76
2022-11-17T18:30:11.425Z,90.73
2022-11-17T18:35:14.256Z,90.70
2022-11-17T18:40:18.411Z,90.12
2022-11-17T18:45:21.165Z,90.10
2022-11-17T18:50:23.985Z,89.97
2022-11-17T18:55:28.213Z,89.94
2022-11-17T19:00:30.993Z,89.58
2022-11-17T19:05:35.165Z,89.77
2022-11-17T19:10:39.440Z,90.42
2022-11-17T19:15:42.225Z,90.13
2022-11-17T19:20:45.238Z,89.98
2022-11-17T19:25:49.308Z,89.80
2022-11-17T19:30:52.030Z,90.24
2022-11-17T19:35:54.772Z,90.47
2022-11-17T19:41:02.641Z,90.15
2022-11-17T19:46:07.813Z,90.07
2022-11-17T19:51:16.757Z,90.09
2022-11-17T19:56:21.876Z,89.70
2022-11-17T20:01:26.834Z,90.09
2022-11-17T20:06:32.974Z,89.98
2022-11-17T20:11:37.633Z,90.13
2022-11-17T20:16:40.437Z,90.26
2022-11-17T20:21:43.234Z,90.13
2022-11-17T20:26:47.416Z,90.14
2022-11-17T20:31:50.213Z,90.17
2022-11-17T20:36:53.020Z,89.86
2022-11-17T20:41:57.098Z,90.10
2022-11-17T20:46:59.908Z,90.74
2022-11-17T20:52:02.782Z,90.50
2022-11-17T20:57:06.929Z,90.91
2022-11-17T21:02:10.406Z,91.03
2022-11-17T21:07:13.194Z,91.05
2022-11-17T21:12:17.459Z,90.83
2022-11-17T21:17:37.785Z,91.17
2022-11-17T21:22:40.661Z,90.66
2022-11-17T21:27:44.773Z,90.98
2022-11-17T21:32:47.694Z,90.46
2022-11-17T21:37:50.446Z,90.62
2022-11-17T21:42:54.501Z,90.74
2022-11-17T21:47:59.497Z,90.85
2022-11-17T21:53:02.613Z,90.43
2022-11-17T21:58:06.740Z,90.49
2022-11-17T22:03:09.455Z,90.49
2022-11-17T22:08:12.264Z,90.54
2022-11-17T22:13:16.385Z,90.12
2022-11-17T22:18:19.136Z,90.12
2022-11-17T22:23:21.836Z,89.97
2022-11-17T22:28:26.465Z,90.32
2022-11-17T22:33:29.224Z,90.29
2022-11-17T22:38:32.192Z,89.88
2022-11-17T22:43:36.511Z,90.16
2022-11-17T22:48:39.487Z,90.14
2022-11-17T22:53:42.296Z,89.86
2022-11-17T22:58:50.009Z,90.00
2022-11-17T23:03:52.927Z,90.12
2022-11-17T23:08:56.235Z,90.68
2022-11-17T23:14:00.899Z,90.45
2022-11-17T23:19:03.725Z,89.96
2022-11-17T23:24:09.369Z,90.12
2022-11-17T23:29:13.832Z,89.92
2022-11-17T23:34:17.095Z,89.71
2022-11-17T23:39:20.037Z,89.77
2022-11-17T23:44:24.143Z,89.63
2022-11-17T23:49:26.861Z,89.52
2022-11-17T23:54:29.674Z,89.38
2022-11-17T23:59:33.981Z,89.73
